Beloit, KS

3:49 AM CDT on August 29, 2014 (GMT -0500)
Center Township | Change Station
CLOSE
Current Station
Personal Weather Station
Location: BELOIT, KS
Elevation: 1504 ft
Nearby Weather Stations

Elev 1504 ft 39.33 °N, 98.15 °W | Updated 2 seconds ago

Overcast
Overcast
69.2 °F
Feels Like 69.2 °F
N
9.0
Wind Variable Wind from SSE
Gusts 11.0 mph

Today
High -- | Low -- °F
--% Chance of Precip.
Yesterday
High -- | Low -- °F
Precip. -- in
6:58 AM 8:07 PM
Waxing Crescent, 13% visible
Pressure 29.81 in
Visibility 10.0 miles
Clouds Few 2400 ft
Few 9000 ft
Mostly Cloudy 11000 ft
Dew Point 63 °F
Humidity 80%
Rainfall 0.00 in
Snow Depth Not available.
UV 0 out of 12
Pollen 2.70 out of 12
Air Quality Not available.
Flu Activity Not available.
SPECI KCNK 290843Z AUTO 22011KT 10SM -RA FEW024 FEW090 BKN110 20/19 A2981 RMK AO2 LTG DSNT S AND SW TSB10E37 P0012 T02000189

More Conditions Fewer Conditions

Pressure 29.81 in
Visibility 10.0 miles
Clouds Few 2400 ft
Few 9000 ft
Mostly Cloudy 11000 ft
Dew Point 63 °F
Humidity 80%
Rainfall 0.00 in
Snow Depth Not available.
UV 0 out of 12
Pollen 2.70 out of 12
Air Quality Not available.
Flu Activity Not available.
SPECI KCNK 290843Z AUTO 22011KT 10SM -RA FEW024 FEW090 BKN110 20/19 A2981 RMK AO2 LTG DSNT S AND SW TSB10E37 P0012 T02000189

More Conditions Fewer Conditions

10-Day Weather Forecast

Almanac

Astronomy

Aug. 29, 2014 Rise Set
Actual Time 6:58 AM CDT 8:07 PM CDT
Civil Twilight 6:30 AM CDT 8:35 PM CDT
Nautical Twilight 5:57 AM CDT 9:08 PM CDT
Astronomical Twilight 5:22 AM CDT 9:42 PM CDT
Moon 10:47 AM CDT 10:07 PM CDT
Length of Visible Light 14h 05m
Length of Day
13h 09m
Tomorrow will be 2m 27s shorter.
Waxing Crescent, 13% of the Moon is Illuminated
Today
Waxing Crescent
Sep 2
First Quarter
Sep 8
Full
Sep 15
Last Quarter
Sep 24
New

Today's Extremes

State Highs State Lows

Community

WunderPhotos

Upload Photos

1,748,197 photos uploaded!

Nearby

Snow Depth

Station Depth Elevation
No new snow has been reported.

Earthquake Activity

City Distance Mag. Time & Date
No recent earthquake activity has been reported nearby.
Minimum magnitude displayed is 2.5.

Coastal Water Temperatures

Place Temperature
No Stations Reporting

Nearby Weather Stations